sensor_id;sensor_type;location;lat;lon;timestamp;P1;durP1;ratioP1;P2;durP2;ratioP2
21386;SDS011;10854;45.922;6.716;2022-12-24T00:01:32;13.57;;;10.60;;
21386;SDS011;10854;45.922;6.716;2022-12-24T00:04:01;6.20;;;5.10;;
21386;SDS011;10854;45.922;6.716;2022-12-24T00:06:29;4.93;;;4.00;;
21386;SDS011;10854;45.922;6.716;2022-12-24T00:08:58;3.20;;;2.90;;
21386;SDS011;10854;45.922;6.716;2022-12-24T00:11:26;5.10;;;3.77;;
21386;SDS011;10854;45.922;6.716;2022-12-24T00:13:55;3.70;;;3.20;;
21386;SDS011;10854;45.922;6.716;2022-12-24T00:16:23;4.57;;;3.33;;
21386;SDS011;10854;45.922;6.716;2022-12-24T00:18:52;3.17;;;2.87;;
21386;SDS011;10854;45.922;6.716;2022-12-24T00:21:20;2.80;;;2.53;;
21386;SDS011;10854;45.922;6.716;2022-12-24T00:23:49;2.93;;;2.57;;
21386;SDS011;10854;45.922;6.716;2022-12-24T00:26:17;3.40;;;2.57;;
21386;SDS011;10854;45.922;6.716;2022-12-24T00:28:46;3.33;;;2.43;;
21386;SDS011;10854;45.922;6.716;2022-12-24T00:31:15;2.60;;;2.40;;
21386;SDS011;10854;45.922;6.716;2022-12-24T00:33:45;3.43;;;2.90;;
21386;SDS011;10854;45.922;6.716;2022-12-24T00:36:14;5.73;;;4.10;;
21386;SDS011;10854;45.922;6.716;2022-12-24T00:38:44;8.23;;;5.70;;
21386;SDS011;10854;45.922;6.716;2022-12-24T00:41:13;5.63;;;4.87;;
21386;SDS011;10854;45.922;6.716;2022-12-24T00:43:58;5.70;;;3.93;;
21386;SDS011;10854;45.922;6.716;2022-12-24T00:46:29;4.77;;;3.80;;
21386;SDS011;10854;45.922;6.716;2022-12-24T00:48:59;4.17;;;3.37;;
21386;SDS011;10854;45.922;6.716;2022-12-24T00:51:28;4.60;;;3.50;;
21386;SDS011;10854;45.922;6.716;2022-12-24T00:53:57;4.10;;;3.20;;
21386;SDS011;10854;45.922;6.716;2022-12-24T00:56:26;6.33;;;3.97;;
21386;SDS011;10854;45.922;6.716;2022-12-24T00:58:54;7.77;;;5.10;;
21386;SDS011;10854;45.922;6.716;2022-12-24T01:01:23;6.07;;;4.87;;
21386;SDS011;10854;45.922;6.716;2022-12-24T01:03:53;6.03;;;4.50;;
21386;SDS011;10854;45.922;6.716;2022-12-24T01:06:41;5.37;;;4.20;;
21386;SDS011;10854;45.922;6.716;2022-12-24T01:09:11;6.27;;;4.90;;
21386;SDS011;10854;45.922;6.716;2022-12-24T01:11:39;6.80;;;5.00;;
21386;SDS011;10854;45.922;6.716;2022-12-24T01:14:08;7.57;;;5.23;;
21386;SDS011;10854;45.922;6.716;2022-12-24T01:16:36;6.03;;;4.97;;
21386;SDS011;10854;45.922;6.716;2022-12-24T01:19:05;4.77;;;3.93;;
21386;SDS011;10854;45.922;6.716;2022-12-24T01:21:34;4.13;;;3.03;;
21386;SDS011;10854;45.922;6.716;2022-12-24T01:24:02;3.23;;;2.00;;
21386;SDS011;10854;45.922;6.716;2022-12-24T01:26:30;3.23;;;2.50;;
21386;SDS011;10854;45.922;6.716;2022-12-24T01:28:59;2.13;;;1.93;;
21386;SDS011;10854;45.922;6.716;2022-12-24T01:31:27;5.10;;;3.87;;
21386;SDS011;10854;45.922;6.716;2022-12-24T01:33:56;5.60;;;4.10;;
21386;SDS011;10854;45.922;6.716;2022-12-24T01:36:25;6.20;;;4.40;;
21386;SDS011;10854;45.922;6.716;2022-12-24T01:38:55;6.27;;;4.60;;
21386;SDS011;10854;45.922;6.716;2022-12-24T01:41:24;5.20;;;3.30;;
21386;SDS011;10854;45.922;6.716;2022-12-24T01:49:46;5.40;;;4.37;;
21386;SDS011;10854;45.922;6.716;2022-12-24T01:52:20;7.20;;;4.83;;
21386;SDS011;10854;45.922;6.716;2022-12-24T01:54:57;10.03;;;7.13;;
21386;SDS011;10854;45.922;6.716;2022-12-24T01:57:34;17.83;;;12.10;;
21386;SDS011;10854;45.922;6.716;2022-12-24T02:00:10;23.60;;;14.40;;
21386;SDS011;10854;45.922;6.716;2022-12-24T02:02:43;16.20;;;10.20;;
21386;SDS011;10854;45.922;6.716;2022-12-24T02:05:22;27.37;;;16.67;;
21386;SDS011;10854;45.922;6.716;2022-12-24T02:07:51;28.80;;;15.67;;
21386;SDS011;10854;45.922;6.716;2022-12-24T02:10:20;25.60;;;14.67;;
21386;SDS011;10854;45.922;6.716;2022-12-24T02:12:48;18.03;;;10.77;;
21386;SDS011;10854;45.922;6.716;2022-12-24T02:15:18;9.77;;;8.30;;
21386;SDS011;10854;45.922;6.716;2022-12-24T02:17:52;9.93;;;7.37;;
21386;SDS011;10854;45.922;6.716;2022-12-24T02:23:37;5.77;;;4.87;;
21386;SDS011;10854;45.922;6.716;2022-12-24T02:34:33;2.80;;;2.27;;
21386;SDS011;10854;45.922;6.716;2022-12-24T02:37:19;6.93;;;4.07;;
21386;SDS011;10854;45.922;6.716;2022-12-24T02:39:56;5.80;;;3.80;;
21386;SDS011;10854;45.922;6.716;2022-12-24T02:42:50;5.83;;;3.63;;
21386;SDS011;10854;45.922;6.716;2022-12-24T02:45:29;4.90;;;3.47;;
21386;SDS011;10854;45.922;6.716;2022-12-24T02:47:59;2.70;;;1.90;;
21386;SDS011;10854;45.922;6.716;2022-12-24T02:50:28;2.00;;;1.80;;
21386;SDS011;10854;45.922;6.716;2022-12-24T02:52:57;2.33;;;1.50;;
21386;SDS011;10854;45.922;6.716;2022-12-24T02:58:39;2.10;;;1.50;;
21386;SDS011;10854;45.922;6.716;2022-12-24T03:01:37;1.47;;;1.00;;
21386;SDS011;10854;45.922;6.716;2022-12-24T03:07:28;3.07;;;1.20;;
21386;SDS011;10854;45.922;6.716;2022-12-24T03:12:44;2.63;;;0.90;;
21386;SDS011;10854;45.922;6.716;2022-12-24T03:15:17;0.80;;;0.80;;
21386;SDS011;10854;45.922;6.716;2022-12-24T03:17:49;0.93;;;0.87;;
21386;SDS011;10854;45.922;6.716;2022-12-24T03:20:24;3.13;;;0.87;;
21386;SDS011;10854;45.922;6.716;2022-12-24T03:23:15;1.77;;;1.00;;
21386;SDS011;10854;45.922;6.716;2022-12-24T03:25:44;1.83;;;0.90;;
21386;SDS011;10854;45.922;6.716;2022-12-24T03:28:13;1.07;;;0.90;;
21386;SDS011;10854;45.922;6.716;2022-12-24T03:30:45;1.67;;;0.97;;
21386;SDS011;10854;45.922;6.716;2022-12-24T03:33:15;1.83;;;0.93;;
21386;SDS011;10854;45.922;6.716;2022-12-24T03:35:44;1.00;;;0.90;;
21386;SDS011;10854;45.922;6.716;2022-12-24T03:38:12;1.63;;;1.43;;
21386;SDS011;10854;45.922;6.716;2022-12-24T03:40:41;3.23;;;1.80;;
21386;SDS011;10854;45.922;6.716;2022-12-24T03:43:09;1.83;;;1.40;;
21386;SDS011;10854;45.922;6.716;2022-12-24T03:45:38;1.67;;;1.27;;
21386;SDS011;10854;45.922;6.716;2022-12-24T03:48:06;1.50;;;1.10;;
21386;SDS011;10854;45.922;6.716;2022-12-24T03:50:35;1.83;;;1.30;;
21386;SDS011;10854;45.922;6.716;2022-12-24T03:53:03;1.70;;;1.60;;
21386;SDS011;10854;45.922;6.716;2022-12-24T03:55:32;1.60;;;1.40;;
21386;SDS011;10854;45.922;6.716;2022-12-24T03:58:02;3.07;;;1.53;;
21386;SDS011;10854;45.922;6.716;2022-12-24T04:00:30;1.30;;;1.20;;
21386;SDS011;10854;45.922;6.716;2022-12-24T04:02:59;1.97;;;1.60;;
21386;SDS011;10854;45.922;6.716;2022-12-24T04:05:27;2.43;;;1.60;;
21386;SDS011;10854;45.922;6.716;2022-12-24T04:07:57;2.80;;;2.10;;
21386;SDS011;10854;45.922;6.716;2022-12-24T04:10:25;2.83;;;2.10;;
21386;SDS011;10854;45.922;6.716;2022-12-24T04:12:54;4.00;;;3.00;;
21386;SDS011;10854;45.922;6.716;2022-12-24T04:15:22;3.63;;;3.23;;
21386;SDS011;10854;45.922;6.716;2022-12-24T04:17:51;4.60;;;3.10;;
21386;SDS011;10854;45.922;6.716;2022-12-24T04:20:19;4.70;;;3.33;;
21386;SDS011;10854;45.922;6.716;2022-12-24T04:22:48;7.63;;;4.33;;
21386;SDS011;10854;45.922;6.716;2022-12-24T04:25:16;5.20;;;4.20;;
21386;SDS011;10854;45.922;6.716;2022-12-24T04:27:44;3.50;;;2.80;;
21386;SDS011;10854;45.922;6.716;2022-12-24T04:30:13;2.93;;;2.60;;
21386;SDS011;10854;45.922;6.716;2022-12-24T04:32:41;3.63;;;3.10;;
21386;SDS011;10854;45.922;6.716;2022-12-24T04:35:10;2.57;;;2.37;;
21386;SDS011;10854;45.922;6.716;2022-12-24T04:37:38;3.70;;;2.77;;
21386;SDS011;10854;45.922;6.716;2022-12-24T04:40:07;4.60;;;2.80;;
21386;SDS011;10854;45.922;6.716;2022-12-24T04:42:36;4.30;;;2.30;;
21386;SDS011;10854;45.922;6.716;2022-12-24T04:45:04;5.80;;;2.50;;
21386;SDS011;10854;45.922;6.716;2022-12-24T04:47:33;3.30;;;2.30;;
21386;SDS011;10854;45.922;6.716;2022-12-24T04:50:01;2.47;;;1.60;;
21386;SDS011;10854;45.922;6.716;2022-12-24T04:52:30;2.80;;;1.43;;
21386;SDS011;10854;45.922;6.716;2022-12-24T04:54:58;1.50;;;1.30;;
21386;SDS011;10854;45.922;6.716;2022-12-24T04:57:27;6.27;;;4.87;;
21386;SDS011;10854;45.922;6.716;2022-12-24T04:59:57;12.27;;;9.40;;
21386;SDS011;10854;45.922;6.716;2022-12-24T05:02:26;9.17;;;6.90;;
21386;SDS011;10854;45.922;6.716;2022-12-24T05:04:57;5.00;;;3.93;;
21386;SDS011;10854;45.922;6.716;2022-12-24T05:07:25;6.73;;;5.20;;
21386;SDS011;10854;45.922;6.716;2022-12-24T05:09:55;7.97;;;5.83;;
21386;SDS011;10854;45.922;6.716;2022-12-24T05:12:23;8.20;;;6.83;;
21386;SDS011;10854;45.922;6.716;2022-12-24T05:14:52;10.03;;;6.63;;
21386;SDS011;10854;45.922;6.716;2022-12-24T05:17:20;5.73;;;4.40;;
21386;SDS011;10854;45.922;6.716;2022-12-24T05:19:49;3.17;;;2.30;;
21386;SDS011;10854;45.922;6.716;2022-12-24T05:22:17;2.00;;;1.70;;
21386;SDS011;10854;45.922;6.716;2022-12-24T05:25:04;1.00;;;0.90;;
21386;SDS011;10854;45.922;6.716;2022-12-24T05:27:51;1.27;;;1.07;;
21386;SDS011;10854;45.922;6.716;2022-12-24T05:30:21;0.93;;;0.80;;
21386;SDS011;10854;45.922;6.716;2022-12-24T05:32:49;1.90;;;1.00;;
21386;SDS011;10854;45.922;6.716;2022-12-24T05:35:18;2.10;;;1.90;;
21386;SDS011;10854;45.922;6.716;2022-12-24T05:37:46;2.83;;;2.03;;
21386;SDS011;10854;45.922;6.716;2022-12-24T05:40:15;4.17;;;2.00;;
21386;SDS011;10854;45.922;6.716;2022-12-24T05:42:43;4.00;;;2.00;;
21386;SDS011;10854;45.922;6.716;2022-12-24T05:45:12;3.73;;;2.40;;
21386;SDS011;10854;45.922;6.716;2022-12-24T05:47:41;7.90;;;6.03;;
21386;SDS011;10854;45.922;6.716;2022-12-24T05:50:10;7.53;;;6.83;;
21386;SDS011;10854;45.922;6.716;2022-12-24T05:52:39;4.33;;;3.93;;
21386;SDS011;10854;45.922;6.716;2022-12-24T05:55:07;3.80;;;3.20;;
21386;SDS011;10854;45.922;6.716;2022-12-24T05:57:37;3.63;;;2.73;;
21386;SDS011;10854;45.922;6.716;2022-12-24T06:00:07;3.00;;;2.70;;
21386;SDS011;10854;45.922;6.716;2022-12-24T06:02:36;5.40;;;4.03;;
21386;SDS011;10854;45.922;6.716;2022-12-24T06:05:05;3.73;;;3.20;;
21386;SDS011;10854;45.922;6.716;2022-12-24T06:07:33;3.10;;;2.60;;
21386;SDS011;10854;45.922;6.716;2022-12-24T06:10:02;5.87;;;4.43;;
21386;SDS011;10854;45.922;6.716;2022-12-24T06:12:30;6.03;;;5.20;;
21386;SDS011;10854;45.922;6.716;2022-12-24T06:14:59;12.67;;;8.50;;
21386;SDS011;10854;45.922;6.716;2022-12-24T06:17:27;12.77;;;9.37;;
21386;SDS011;10854;45.922;6.716;2022-12-24T06:19:57;27.60;;;16.97;;
21386;SDS011;10854;45.922;6.716;2022-12-24T06:22:25;21.70;;;14.53;;
21386;SDS011;10854;45.922;6.716;2022-12-24T06:24:54;19.07;;;11.97;;
21386;SDS011;10854;45.922;6.716;2022-12-24T06:27:22;13.37;;;8.83;;
21386;SDS011;10854;45.922;6.716;2022-12-24T06:29:51;14.37;;;8.93;;
21386;SDS011;10854;45.922;6.716;2022-12-24T06:32:19;5.87;;;3.83;;
21386;SDS011;10854;45.922;6.716;2022-12-24T06:34:47;2.07;;;1.80;;
21386;SDS011;10854;45.922;6.716;2022-12-24T06:37:16;2.33;;;1.10;;
21386;SDS011;10854;45.922;6.716;2022-12-24T06:39:44;24.40;;;19.83;;
21386;SDS011;10854;45.922;6.716;2022-12-24T06:42:13;4.70;;;4.23;;
21386;SDS011;10854;45.922;6.716;2022-12-24T06:44:41;2.17;;;1.40;;
21386;SDS011;10854;45.922;6.716;2022-12-24T06:47:10;0.80;;;0.80;;
21386;SDS011;10854;45.922;6.716;2022-12-24T06:49:38;4.77;;;2.80;;
21386;SDS011;10854;45.922;6.716;2022-12-24T06:52:07;2.60;;;1.80;;
21386;SDS011;10854;45.922;6.716;2022-12-24T06:54:35;1.90;;;1.60;;
21386;SDS011;10854;45.922;6.716;2022-12-24T06:57:03;2.20;;;1.30;;
21386;SDS011;10854;45.922;6.716;2022-12-24T06:59:33;1.00;;;0.90;;
21386;SDS011;10854;45.922;6.716;2022-12-24T07:02:02;3.50;;;1.90;;
21386;SDS011;10854;45.922;6.716;2022-12-24T07:04:30;2.47;;;2.10;;
21386;SDS011;10854;45.922;6.716;2022-12-24T07:06:59;3.87;;;1.90;;
21386;SDS011;10854;45.922;6.716;2022-12-24T07:09:27;3.10;;;2.10;;
21386;SDS011;10854;45.922;6.716;2022-12-24T07:11:55;5.03;;;2.40;;
21386;SDS011;10854;45.922;6.716;2022-12-24T07:14:24;2.20;;;1.80;;
21386;SDS011;10854;45.922;6.716;2022-12-24T07:16:52;3.07;;;2.10;;
21386;SDS011;10854;45.922;6.716;2022-12-24T07:19:24;3.63;;;1.93;;
21386;SDS011;10854;45.922;6.716;2022-12-24T07:21:53;2.33;;;1.93;;
21386;SDS011;10854;45.922;6.716;2022-12-24T07:24:21;2.33;;;1.53;;
21386;SDS011;10854;45.922;6.716;2022-12-24T07:26:49;2.60;;;1.40;;
21386;SDS011;10854;45.922;6.716;2022-12-24T07:29:18;2.10;;;1.83;;
21386;SDS011;10854;45.922;6.716;2022-12-24T07:31:47;1.60;;;1.50;;
21386;SDS011;10854;45.922;6.716;2022-12-24T07:34:15;2.57;;;1.87;;
21386;SDS011;10854;45.922;6.716;2022-12-24T07:36:44;3.43;;;2.20;;
21386;SDS011;10854;45.922;6.716;2022-12-24T07:39:12;2.30;;;1.70;;
21386;SDS011;10854;45.922;6.716;2022-12-24T07:41:40;1.53;;;1.40;;
21386;SDS011;10854;45.922;6.716;2022-12-24T07:44:11;2.50;;;1.63;;
21386;SDS011;10854;45.922;6.716;2022-12-24T07:46:41;3.40;;;2.40;;
21386;SDS011;10854;45.922;6.716;2022-12-24T07:49:09;5.67;;;4.23;;
21386;SDS011;10854;45.922;6.716;2022-12-24T07:51:38;3.97;;;2.37;;
21386;SDS011;10854;45.922;6.716;2022-12-24T07:54:06;4.50;;;3.03;;
21386;SDS011;10854;45.922;6.716;2022-12-24T07:56:35;3.23;;;2.77;;
21386;SDS011;10854;45.922;6.716;2022-12-24T07:59:03;3.33;;;2.90;;
21386;SDS011;10854;45.922;6.716;2022-12-24T08:01:31;3.40;;;2.63;;
21386;SDS011;10854;45.922;6.716;2022-12-24T08:04:00;2.93;;;2.17;;
21386;SDS011;10854;45.922;6.716;2022-12-24T08:06:28;2.97;;;2.10;;
21386;SDS011;10854;45.922;6.716;2022-12-24T08:08:57;2.57;;;2.30;;
21386;SDS011;10854;45.922;6.716;2022-12-24T08:11:26;11.43;;;9.57;;
21386;SDS011;10854;45.922;6.716;2022-12-24T08:13:55;7.43;;;5.20;;
21386;SDS011;10854;45.922;6.716;2022-12-24T08:16:23;7.90;;;5.33;;
21386;SDS011;10854;45.922;6.716;2022-12-24T08:18:52;4.57;;;3.40;;
21386;SDS011;10854;45.922;6.716;2022-12-24T08:21:20;2.10;;;1.90;;
21386;SDS011;10854;45.922;6.716;2022-12-24T08:23:48;2.33;;;1.67;;
21386;SDS011;10854;45.922;6.716;2022-12-24T08:26:17;2.40;;;2.10;;
21386;SDS011;10854;45.922;6.716;2022-12-24T08:28:45;3.50;;;1.90;;
21386;SDS011;10854;45.922;6.716;2022-12-24T08:31:14;2.27;;;1.40;;
21386;SDS011;10854;45.922;6.716;2022-12-24T08:33:43;2.67;;;2.43;;
21386;SDS011;10854;45.922;6.716;2022-12-24T08:36:11;1.90;;;1.70;;
21386;SDS011;10854;45.922;6.716;2022-12-24T08:38:40;5.03;;;4.03;;
21386;SDS011;10854;45.922;6.716;2022-12-24T08:41:08;3.70;;;3.30;;
21386;SDS011;10854;45.922;6.716;2022-12-24T08:43:37;4.60;;;4.00;;
21386;SDS011;10854;45.922;6.716;2022-12-24T08:46:05;8.33;;;5.87;;
21386;SDS011;10854;45.922;6.716;2022-12-24T08:48:34;5.37;;;3.93;;
21386;SDS011;10854;45.922;6.716;2022-12-24T08:51:07;3.00;;;2.50;;
21386;SDS011;10854;45.922;6.716;2022-12-24T08:53:39;2.17;;;1.80;;
21386;SDS011;10854;45.922;6.716;2022-12-24T08:56:08;2.73;;;1.90;;
21386;SDS011;10854;45.922;6.716;2022-12-24T08:58:38;3.57;;;1.67;;
21386;SDS011;10854;45.922;6.716;2022-12-24T09:01:11;1.53;;;1.40;;
21386;SDS011;10854;45.922;6.716;2022-12-24T09:03:41;2.00;;;1.70;;
21386;SDS011;10854;45.922;6.716;2022-12-24T09:06:10;3.10;;;2.80;;
21386;SDS011;10854;45.922;6.716;2022-12-24T09:08:39;4.50;;;3.50;;
21386;SDS011;10854;45.922;6.716;2022-12-24T09:11:09;10.43;;;9.47;;
21386;SDS011;10854;45.922;6.716;2022-12-24T09:13:40;10.37;;;9.33;;
21386;SDS011;10854;45.922;6.716;2022-12-24T09:16:09;8.87;;;7.37;;
21386;SDS011;10854;45.922;6.716;2022-12-24T09:18:39;3.83;;;3.53;;
21386;SDS011;10854;45.922;6.716;2022-12-24T09:21:09;4.20;;;3.80;;
21386;SDS011;10854;45.922;6.716;2022-12-24T09:23:42;5.93;;;4.73;;
21386;SDS011;10854;45.922;6.716;2022-12-24T09:26:17;3.60;;;3.17;;
21386;SDS011;10854;45.922;6.716;2022-12-24T09:28:53;4.43;;;3.00;;
21386;SDS011;10854;45.922;6.716;2022-12-24T09:31:21;2.57;;;2.30;;
21386;SDS011;10854;45.922;6.716;2022-12-24T09:33:50;4.50;;;3.57;;
21386;SDS011;10854;45.922;6.716;2022-12-24T09:36:19;4.97;;;3.40;;
21386;SDS011;10854;45.922;6.716;2022-12-24T09:38:48;5.50;;;3.57;;
21386;SDS011;10854;45.922;6.716;2022-12-24T09:43:53;4.03;;;2.30;;
21386;SDS011;10854;45.922;6.716;2022-12-24T09:46:29;3.70;;;2.37;;
21386;SDS011;10854;45.922;6.716;2022-12-24T09:49:09;3.03;;;2.20;;
21386;SDS011;10854;45.922;6.716;2022-12-24T09:51:54;2.87;;;2.20;;
21386;SDS011;10854;45.922;6.716;2022-12-24T09:54:32;5.67;;;4.03;;
21386;SDS011;10854;45.922;6.716;2022-12-24T10:00:10;4.87;;;3.73;;
21386;SDS011;10854;45.922;6.716;2022-12-24T10:02:47;5.80;;;5.20;;
21386;SDS011;10854;45.922;6.716;2022-12-24T10:05:16;8.17;;;6.03;;
21386;SDS011;10854;45.922;6.716;2022-12-24T10:07:53;9.57;;;7.47;;
21386;SDS011;10854;45.922;6.716;2022-12-24T10:10:40;3.60;;;2.80;;
21386;SDS011;10854;45.922;6.716;2022-12-24T10:13:38;2.43;;;2.00;;
21386;SDS011;10854;45.922;6.716;2022-12-24T10:16:27;2.23;;;2.03;;
21386;SDS011;10854;45.922;6.716;2022-12-24T10:19:15;4.73;;;3.50;;
21386;SDS011;10854;45.922;6.716;2022-12-24T10:21:53;8.03;;;6.77;;
21386;SDS011;10854;45.922;6.716;2022-12-24T10:24:31;6.87;;;5.20;;
21386;SDS011;10854;45.922;6.716;2022-12-24T10:27:16;4.73;;;3.80;;
21386;SDS011;10854;45.922;6.716;2022-12-24T10:29:48;4.47;;;2.53;;
21386;SDS011;10854;45.922;6.716;2022-12-24T10:32:43;2.27;;;2.07;;
21386;SDS011;10854;45.922;6.716;2022-12-24T10:37:43;3.70;;;2.93;;
21386;SDS011;10854;45.922;6.716;2022-12-24T10:40:24;3.23;;;2.00;;
21386;SDS011;10854;45.922;6.716;2022-12-24T10:42:57;2.70;;;2.20;;
21386;SDS011;10854;45.922;6.716;2022-12-24T10:45:28;3.07;;;2.70;;
21386;SDS011;10854;45.922;6.716;2022-12-24T10:48:03;4.63;;;3.00;;
21386;SDS011;10854;45.922;6.716;2022-12-24T10:50:40;4.93;;;2.83;;
21386;SDS011;10854;45.922;6.716;2022-12-24T10:53:39;5.37;;;4.83;;
21386;SDS011;10854;45.922;6.716;2022-12-24T10:56:18;5.80;;;3.87;;
21386;SDS011;10854;45.922;6.716;2022-12-24T10:58:52;5.93;;;4.00;;
21386;SDS011;10854;45.922;6.716;2022-12-24T11:01:41;6.23;;;3.40;;
21386;SDS011;10854;45.922;6.716;2022-12-24T11:04:18;4.93;;;3.57;;
21386;SDS011;10854;45.922;6.716;2022-12-24T11:09:24;5.87;;;3.60;;
21386;SDS011;10854;45.922;6.716;2022-12-24T11:11:55;4.17;;;2.80;;
21386;SDS011;10854;45.922;6.716;2022-12-24T11:14:27;3.63;;;2.33;;
21386;SDS011;10854;45.922;6.716;2022-12-24T11:17:00;1.90;;;1.70;;
21386;SDS011;10854;45.922;6.716;2022-12-24T11:19:33;2.17;;;1.80;;
21386;SDS011;10854;45.922;6.716;2022-12-24T11:22:07;5.87;;;3.40;;
21386;SDS011;10854;45.922;6.716;2022-12-24T11:24:45;3.77;;;2.90;;
21386;SDS011;10854;45.922;6.716;2022-12-24T11:27:28;3.83;;;3.00;;
21386;SDS011;10854;45.922;6.716;2022-12-24T11:32:46;4.67;;;2.80;;
21386;SDS011;10854;45.922;6.716;2022-12-24T11:35:21;4.20;;;3.37;;
21386;SDS011;10854;45.922;6.716;2022-12-24T11:40:38;3.20;;;2.90;;
21386;SDS011;10854;45.922;6.716;2022-12-24T11:43:16;2.50;;;1.83;;
21386;SDS011;10854;45.922;6.716;2022-12-24T11:45:50;1.90;;;1.70;;
21386;SDS011;10854;45.922;6.716;2022-12-24T11:48:24;1.97;;;1.63;;
21386;SDS011;10854;45.922;6.716;2022-12-24T11:51:04;2.20;;;2.00;;
21386;SDS011;10854;45.922;6.716;2022-12-24T11:56:23;1.63;;;1.50;;
21386;SDS011;10854;45.922;6.716;2022-12-24T11:59:18;1.90;;;1.63;;
21386;SDS011;10854;45.922;6.716;2022-12-24T12:04:51;2.50;;;2.00;;
21386;SDS011;10854;45.922;6.716;2022-12-24T12:07:24;2.30;;;2.10;;
21386;SDS011;10854;45.922;6.716;2022-12-24T12:12:40;4.00;;;3.00;;
21386;SDS011;10854;45.922;6.716;2022-12-24T12:15:11;2.90;;;2.27;;
21386;SDS011;10854;45.922;6.716;2022-12-24T12:17:55;3.30;;;2.50;;
21386;SDS011;10854;45.922;6.716;2022-12-24T12:20:42;3.10;;;2.60;;
21386;SDS011;10854;45.922;6.716;2022-12-24T12:23:33;7.27;;;6.10;;
21386;SDS011;10854;45.922;6.716;2022-12-24T12:28:56;6.93;;;5.07;;
21386;SDS011;10854;45.922;6.716;2022-12-24T12:37:25;3.33;;;2.33;;
21386;SDS011;10854;45.922;6.716;2022-12-24T12:40:12;4.77;;;3.60;;
21386;SDS011;10854;45.922;6.716;2022-12-24T12:42:49;4.57;;;3.80;;
21386;SDS011;10854;45.922;6.716;2022-12-24T12:45:50;3.93;;;3.00;;
21386;SDS011;10854;45.922;6.716;2022-12-24T12:48:41;3.83;;;2.27;;
21386;SDS011;10854;45.922;6.716;2022-12-24T12:54:31;3.50;;;3.17;;
21386;SDS011;10854;45.922;6.716;2022-12-24T12:57:18;3.20;;;2.40;;
21386;SDS011;10854;45.922;6.716;2022-12-24T12:59:53;2.47;;;2.00;;
21386;SDS011;10854;45.922;6.716;2022-12-24T13:05:35;2.43;;;2.00;;
21386;SDS011;10854;45.922;6.716;2022-12-24T13:11:17;2.30;;;1.90;;
21386;SDS011;10854;45.922;6.716;2022-12-24T13:22:27;2.60;;;2.20;;
21386;SDS011;10854;45.922;6.716;2022-12-24T13:24:56;2.53;;;2.00;;
21386;SDS011;10854;45.922;6.716;2022-12-24T13:27:25;3.30;;;2.00;;
21386;SDS011;10854;45.922;6.716;2022-12-24T13:29:57;2.70;;;2.00;;
21386;SDS011;10854;45.922;6.716;2022-12-24T13:32:49;2.40;;;2.20;;
21386;SDS011;10854;45.922;6.716;2022-12-24T13:37:48;2.20;;;1.90;;
21386;SDS011;10854;45.922;6.716;2022-12-24T13:40:23;2.47;;;2.10;;
21386;SDS011;10854;45.922;6.716;2022-12-24T13:53:20;5.20;;;3.60;;
21386;SDS011;10854;45.922;6.716;2022-12-24T13:56:28;3.70;;;3.30;;
21386;SDS011;10854;45.922;6.716;2022-12-24T14:02:15;3.93;;;3.10;;
21386;SDS011;10854;45.922;6.716;2022-12-24T14:04:48;5.20;;;4.43;;
21386;SDS011;10854;45.922;6.716;2022-12-24T14:07:18;5.43;;;3.70;;
21386;SDS011;10854;45.922;6.716;2022-12-24T14:09:50;4.40;;;3.40;;
21386;SDS011;10854;45.922;6.716;2022-12-24T14:12:31;4.30;;;3.43;;
21386;SDS011;10854;45.922;6.716;2022-12-24T14:15:23;5.80;;;3.10;;
21386;SDS011;10854;45.922;6.716;2022-12-24T14:18:07;4.53;;;3.60;;
21386;SDS011;10854;45.922;6.716;2022-12-24T14:20:36;5.37;;;3.60;;
21386;SDS011;10854;45.922;6.716;2022-12-24T14:23:05;4.40;;;3.53;;
21386;SDS011;10854;45.922;6.716;2022-12-24T14:25:34;4.47;;;3.43;;
21386;SDS011;10854;45.922;6.716;2022-12-24T14:28:04;5.77;;;3.70;;
21386;SDS011;10854;45.922;6.716;2022-12-24T14:30:41;5.93;;;4.83;;
21386;SDS011;10854;45.922;6.716;2022-12-24T14:33:31;9.23;;;6.43;;
21386;SDS011;10854;45.922;6.716;2022-12-24T14:36:01;6.07;;;5.27;;
21386;SDS011;10854;45.922;6.716;2022-12-24T14:38:30;7.30;;;5.73;;
21386;SDS011;10854;45.922;6.716;2022-12-24T14:41:15;5.07;;;4.53;;
21386;SDS011;10854;45.922;6.716;2022-12-24T14:44:21;3.60;;;3.30;;
21386;SDS011;10854;45.922;6.716;2022-12-24T14:55:44;5.73;;;3.73;;
21386;SDS011;10854;45.922;6.716;2022-12-24T15:00:54;5.67;;;3.37;;
21386;SDS011;10854;45.922;6.716;2022-12-24T15:03:28;4.70;;;3.30;;
21386;SDS011;10854;45.922;6.716;2022-12-24T15:06:00;7.73;;;4.67;;
21386;SDS011;10854;45.922;6.716;2022-12-24T15:08:35;6.03;;;4.40;;
21386;SDS011;10854;45.922;6.716;2022-12-24T15:11:08;6.77;;;5.10;;
21386;SDS011;10854;45.922;6.716;2022-12-24T15:13:43;6.50;;;4.53;;
21386;SDS011;10854;45.922;6.716;2022-12-24T15:16:17;6.27;;;4.30;;
21386;SDS011;10854;45.922;6.716;2022-12-24T15:18:52;6.03;;;4.40;;
21386;SDS011;10854;45.922;6.716;2022-12-24T15:21:25;5.73;;;4.20;;
21386;SDS011;10854;45.922;6.716;2022-12-24T15:24:00;7.20;;;4.53;;
21386;SDS011;10854;45.922;6.716;2022-12-24T15:26:29;5.43;;;4.10;;
21386;SDS011;10854;45.922;6.716;2022-12-24T15:29:05;5.40;;;4.37;;
21386;SDS011;10854;45.922;6.716;2022-12-24T15:31:43;9.03;;;7.30;;
21386;SDS011;10854;45.922;6.716;2022-12-24T15:34:23;9.23;;;7.20;;
21386;SDS011;10854;45.922;6.716;2022-12-24T15:37:02;9.10;;;7.30;;
21386;SDS011;10854;45.922;6.716;2022-12-24T15:39:34;10.27;;;7.50;;
21386;SDS011;10854;45.922;6.716;2022-12-24T15:42:09;9.80;;;7.33;;
21386;SDS011;10854;45.922;6.716;2022-12-24T15:45:28;13.60;;;10.20;;
21386;SDS011;10854;45.922;6.716;2022-12-24T15:47:51;12.33;;;9.57;;
21386;SDS011;10854;45.922;6.716;2022-12-24T15:50:30;11.37;;;9.23;;
21386;SDS011;10854;45.922;6.716;2022-12-24T15:53:02;8.77;;;6.10;;
21386;SDS011;10854;45.922;6.716;2022-12-24T15:55:33;8.83;;;5.53;;
21386;SDS011;10854;45.922;6.716;2022-12-24T15:58:16;9.07;;;6.63;;
21386;SDS011;10854;45.922;6.716;2022-12-24T16:03:40;20.57;;;15.03;;
21386;SDS011;10854;45.922;6.716;2022-12-24T16:06:22;15.93;;;13.67;;
21386;SDS011;10854;45.922;6.716;2022-12-24T16:08:51;10.13;;;8.93;;
21386;SDS011;10854;45.922;6.716;2022-12-24T16:11:20;11.87;;;8.23;;
21386;SDS011;10854;45.922;6.716;2022-12-24T16:13:59;12.57;;;8.97;;
21386;SDS011;10854;45.922;6.716;2022-12-24T16:16:41;7.73;;;6.23;;
21386;SDS011;10854;45.922;6.716;2022-12-24T16:19:23;8.27;;;6.30;;
21386;SDS011;10854;45.922;6.716;2022-12-24T16:21:59;6.00;;;5.40;;
21386;SDS011;10854;45.922;6.716;2022-12-24T16:24:52;5.70;;;4.93;;
21386;SDS011;10854;45.922;6.716;2022-12-24T16:27:22;6.23;;;4.50;;
21386;SDS011;10854;45.922;6.716;2022-12-24T16:29:50;7.80;;;5.90;;
21386;SDS011;10854;45.922;6.716;2022-12-24T16:34:56;11.27;;;9.93;;
21386;SDS011;10854;45.922;6.716;2022-12-24T16:37:24;12.90;;;9.73;;
21386;SDS011;10854;45.922;6.716;2022-12-24T16:39:54;16.20;;;11.70;;
21386;SDS011;10854;45.922;6.716;2022-12-24T16:42:23;13.37;;;8.97;;
21386;SDS011;10854;45.922;6.716;2022-12-24T16:45:10;35.87;;;21.53;;
21386;SDS011;10854;45.922;6.716;2022-12-24T16:47:38;12.33;;;8.97;;
21386;SDS011;10854;45.922;6.716;2022-12-24T16:50:14;6.57;;;4.83;;
21386;SDS011;10854;45.922;6.716;2022-12-24T16:52:43;5.70;;;4.03;;
21386;SDS011;10854;45.922;6.716;2022-12-24T16:55:13;5.47;;;4.17;;
21386;SDS011;10854;45.922;6.716;2022-12-24T16:57:42;5.10;;;4.07;;
21386;SDS011;10854;45.922;6.716;2022-12-24T17:00:20;5.97;;;4.33;;
21386;SDS011;10854;45.922;6.716;2022-12-24T17:02:49;6.57;;;4.47;;
21386;SDS011;10854;45.922;6.716;2022-12-24T17:05:18;5.47;;;4.80;;
21386;SDS011;10854;45.922;6.716;2022-12-24T17:07:50;6.70;;;5.30;;
21386;SDS011;10854;45.922;6.716;2022-12-24T17:10:18;6.03;;;5.10;;